Time;durP1;ratioP1;P1;durP2;ratioP2;P2;SDS_P1;SDS_P2;PMS_P1;PMS_P2;Temp;Humidity;BMP_temperature;BMP_pressure;BME280_temperature;BME280_humidity;BME280_pressure;Samples;Min_cycle;Max_cycle;Signal;HPM_P1;HPM_P2
2023/09/04 00:00:44;;;;;;;5.95;3.08;;;;;;;;;;5025302;28;20028;-70
2023/09/04 00:03:09;;;;;;;7.07;2.90;;;;;;;;;;5023658;28;20478;-71
2023/09/04 00:05:35;;;;;;;5.13;2.72;;;;;;;;;;5025856;28;20471;-70
2023/09/04 00:08:00;;;;;;;6.43;3.15;;;;;;;;;;5026742;28;20014;-70
2023/09/04 00:10:26;;;;;;;6.93;3.00;;;;;;;;;;5024005;28;20041;-71
2023/09/04 00:12:51;;;;;;;7.78;2.72;;;;;;;;;;5026924;28;20100;-71
2023/09/04 00:20:18;;;;;;;8.13;3.00;;;;;;;;;;5023400;28;20041;-63
2023/09/04 00:22:43;;;;;;;5.88;2.80;;;;;;;;;;5031278;28;20029;-67
2023/09/04 00:25:09;;;;;;;8.10;2.90;;;;;;;;;;5028088;28;20137;-65
2023/09/04 00:27:34;;;;;;;6.30;2.75;;;;;;;;;;5030570;28;20473;-67
2023/09/04 00:30:00;;;;;;;4.80;2.42;;;;;;;;;;5032709;28;20020;-66
2023/09/04 00:32:25;;;;;;;10.25;2.85;;;;;;;;;;5043896;23;20121;-69
2023/09/04 00:34:50;;;;;;;6.32;2.85;;;;;;;;;;5027613;28;20045;-67
2023/09/04 00:37:16;;;;;;;5.65;2.58;;;;;;;;;;5029202;28;20108;-68
2023/09/04 00:39:41;;;;;;;5.68;2.47;;;;;;;;;;5030621;28;20104;-69
2023/09/04 00:42:06;;;;;;;8.18;3.05;;;;;;;;;;5029979;28;20021;-68
2023/09/04 00:44:32;;;;;;;6.88;3.10;;;;;;;;;;5029309;28;20029;-69
2023/09/04 00:46:57;;;;;;;8.10;2.95;;;;;;;;;;5027073;28;20147;-67
2023/09/04 00:49:23;;;;;;;5.90;2.90;;;;;;;;;;5028596;28;20030;-69
2023/09/04 00:51:48;;;;;;;4.43;2.30;;;;;;;;;;5025286;28;20101;-65
2023/09/04 00:54:14;;;;;;;9.43;3.78;;;;;;;;;;5028907;28;20030;-68
2023/09/04 00:56:40;;;;;;;12.05;3.53;;;;;;;;;;5028593;28;20104;-69
2023/09/04 00:59:05;;;;;;;7.63;3.78;;;;;;;;;;5029887;28;20014;-69
2023/09/04 01:01:30;;;;;;;9.38;3.25;;;;;;;;;;5029430;28;20505;-65
2023/09/04 01:03:55;;;;;;;5.35;2.83;;;;;;;;;;5028615;28;20014;-67
2023/09/04 01:06:21;;;;;;;6.18;2.60;;;;;;;;;;5027942;28;20350;-68
2023/09/04 01:08:46;;;;;;;5.78;2.78;;;;;;;;;;5026665;28;20017;-68
2023/09/04 01:11:16;;;;;;;4.68;2.58;;;;;;;;;;5021824;28;20068;-71
2023/09/04 01:13:49;;;;;;;8.30;4.07;;;;;;;;;;5025111;28;20109;-70
2023/09/04 01:16:15;;;;;;;7.63;3.90;;;;;;;;;;5023544;28;20075;-68
2023/09/04 01:18:41;;;;;;;7.05;3.75;;;;;;;;;;5021014;28;20109;-67
2023/09/04 01:21:06;;;;;;;5.40;2.92;;;;;;;;;;5029346;28;20125;-68
2023/09/04 01:23:32;;;;;;;12.60;3.85;;;;;;;;;;5024808;28;20438;-69
2023/09/04 01:26:03;;;;;;;5.60;3.00;;;;;;;;;;5026380;28;20022;-68
2023/09/04 01:28:50;;;;;;;6.60;2.95;;;;;;;;;;5023592;28;20121;-65
2023/09/04 01:31:34;;;;;;;5.35;2.78;;;;;;;;;;5029572;28;20029;-70
2023/09/04 01:34:03;;;;;;;5.85;3.33;;;;;;;;;;5029294;28;20095;-68
2023/09/04 01:36:32;;;;;;;7.50;3.30;;;;;;;;;;5024632;28;20025;-66
2023/09/04 01:38:57;;;;;;;;;;;;;;;;;;5027603;28;20032;-65
2023/09/04 01:41:23;;;;;;;8.77;2.78;;;;;;;;;;5028950;28;19992;-69
2023/09/04 01:43:48;;;;;;;6.22;2.97;;;;;;;;;;5028186;28;20270;-67
2023/09/04 01:46:13;;;;;;;7.70;3.58;;;;;;;;;;5028357;28;20068;-68
2023/09/04 01:48:38;;;;;;;7.07;3.13;;;;;;;;;;5028628;28;20022;-68
2023/09/04 01:51:04;;;;;;;7.47;3.28;;;;;;;;;;5029109;28;20017;-66
2023/09/04 01:53:29;;;;;;;5.47;3.13;;;;;;;;;;5029058;28;20466;-69
2023/09/04 01:55:54;;;;;;;10.13;3.72;;;;;;;;;;5024136;28;20028;-67
2023/09/04 01:58:19;;;;;;;7.65;3.60;;;;;;;;;;5041943;28;20087;-68
2023/09/04 02:00:48;;;;;;;10.88;4.03;;;;;;;;;;5028552;28;20381;-66
2023/09/04 02:03:13;;;;;;;7.13;3.77;;;;;;;;;;5025788;28;20018;-68
2023/09/04 02:05:39;;;;;;;10.32;3.60;;;;;;;;;;5026838;28;20270;-69
2023/09/04 02:08:04;;;;;;;6.93;3.58;;;;;;;;;;5028533;28;20025;-67
2023/09/04 02:10:33;;;;;;;8.52;3.83;;;;;;;;;;5028217;28;20381;-69
2023/09/04 02:12:58;;;;;;;10.40;3.80;;;;;;;;;;5015513;28;20025;-70
2023/09/04 02:15:24;;;;;;;6.35;3.58;;;;;;;;;;5024009;28;20497;-68
2023/09/04 02:17:49;;;;;;;10.63;3.65;;;;;;;;;;5022339;28;20525;-70
2023/09/04 02:20:14;;;;;;;14.73;3.78;;;;;;;;;;5028775;28;20044;-68
2023/09/04 02:22:39;;;;;;;10.70;4.22;;;;;;;;;;5027317;28;20030;-70
2023/09/04 02:25:05;;;;;;;7.32;3.38;;;;;;;;;;5023910;28;20112;-71
2023/09/04 02:27:30;;;;;;;6.57;3.63;;;;;;;;;;5015743;28;20029;-71
2023/09/04 02:29:55;;;;;;;9.82;3.75;;;;;;;;;;5027913;28;20034;-72
2023/09/04 02:32:20;;;;;;;8.30;4.35;;;;;;;;;;5027404;28;20021;-72
2023/09/04 02:34:45;;;;;;;11.35;4.57;;;;;;;;;;5028457;28;20100;-72
2023/09/04 02:37:11;;;;;;;10.90;3.42;;;;;;;;;;5028014;28;20128;-70
2023/09/04 02:39:36;;;;;;;6.35;4.03;;;;;;;;;;5027870;28;20017;-69
2023/09/04 02:42:01;;;;;;;12.40;4.97;;;;;;;;;;5028001;28;20029;-72
2023/09/04 02:44:28;;;;;;;8.05;4.32;;;;;;;;;;5028356;28;20037;-71
2023/09/04 02:46:53;;;;;;;8.38;4.18;;;;;;;;;;5027468;28;20367;-71
2023/09/04 02:49:18;;;;;;;9.27;5.10;;;;;;;;;;5028302;28;20036;-72
2023/09/04 02:51:43;;;;;;;9.93;4.53;;;;;;;;;;5028162;28;20087;-69
2023/09/04 02:54:08;;;;;;;10.85;4.60;;;;;;;;;;5026735;28;20488;-71
2023/09/04 02:56:34;;;;;;;16.52;5.05;;;;;;;;;;5026782;28;20439;-71
2023/09/04 02:58:59;;;;;;;8.93;4.32;;;;;;;;;;5027867;28;20105;-70
2023/09/04 03:01:24;;;;;;;7.80;4.28;;;;;;;;;;5027987;28;20032;-71
2023/09/04 03:03:49;;;;;;;9.45;4.45;;;;;;;;;;5027893;28;20033;-72
2023/09/04 03:06:14;;;;;;;10.98;4.35;;;;;;;;;;5027930;28;20029;-68
2023/09/04 03:08:40;;;;;;;13.18;4.68;;;;;;;;;;5027707;28;20025;-72
2023/09/04 03:11:09;;;;;;;10.50;5.00;;;;;;;;;;5023716;28;20022;-70
2023/09/04 03:13:34;;;;;;;7.72;4.28;;;;;;;;;;5014526;28;20075;-68
2023/09/04 03:16:00;;;;;;;6.85;3.97;;;;;;;;;;5027908;28;20486;-72
2023/09/04 03:18:25;;;;;;;8.60;4.68;;;;;;;;;;5026974;28;20021;-68
2023/09/04 03:20:50;;;;;;;11.60;4.82;;;;;;;;;;5027225;28;20059;-71
2023/09/04 03:23:15;;;;;;;9.05;5.07;;;;;;;;;;5027431;28;20033;-72
2023/09/04 03:25:40;;;;;;;9.77;5.38;;;;;;;;;;5026537;28;20076;-71
2023/09/04 03:28:06;;;;;;;14.52;5.20;;;;;;;;;;5006192;28;20017;-70
2023/09/04 03:30:32;;;;;;;8.90;4.90;;;;;;;;;;5021112;28;20096;-69
2023/09/04 03:32:58;;;;;;;10.88;4.60;;;;;;;;;;5027338;28;20371;-70
2023/09/04 03:35:23;;;;;;;8.38;3.72;;;;;;;;;;5027707;28;20053;-71
2023/09/04 03:37:49;;;;;;;9.45;4.57;;;;;;;;;;5027069;28;20067;-70
2023/09/04 03:40:32;;;;;;;8.80;4.43;;;;;;;;;;5027954;28;20028;-68
2023/09/04 03:42:57;;;;;;;9.23;4.45;;;;;;;;;;5027815;28;20080;-70
2023/09/04 03:45:23;;;;;;;15.10;5.10;;;;;;;;;;5027895;28;20021;-70
2023/09/04 03:47:48;;;;;;;11.90;4.32;;;;;;;;;;5027038;28;20119;-71
2023/09/04 03:50:14;;;;;;;13.23;4.45;;;;;;;;;;5028032;28;20028;-68
2023/09/04 03:52:40;;;;;;;11.05;4.93;;;;;;;;;;5031112;28;20030;-71
2023/09/04 03:55:06;;;;;;;7.28;3.92;;;;;;;;;;5027472;28;20451;-70
2023/09/04 03:57:31;;;;;;;11.05;5.13;;;;;;;;;;5031000;28;20037;-72
2023/09/04 03:59:56;;;;;;;10.63;5.28;;;;;;;;;;5030978;28;20142;-69
2023/09/04 04:02:21;;;;;;;10.50;5.97;;;;;;;;;;5030994;28;20022;-71
2023/09/04 04:04:50;;;;;;;9.52;5.20;;;;;;;;;;5031188;28;20035;-71
2023/09/04 04:07:16;;;;;;;;;;;;;;;;;;5031215;28;20032;-68
2023/09/04 04:09:43;;;;;;;11.95;5.05;;;;;;;;;;5031440;28;19909;-67
2023/09/04 04:12:09;;;;;;;15.52;5.70;;;;;;;;;;5021692;28;20014;-71
2023/09/04 04:14:34;;;;;;;15.60;4.80;;;;;;;;;;5025663;28;20377;-69
2023/09/04 04:16:59;;;;;;;11.18;4.47;;;;;;;;;;5030448;28;20397;-71
2023/09/04 04:19:24;;;;;;;10.85;4.75;;;;;;;;;;5030329;28;20033;-70
2023/09/04 04:21:50;;;;;;;17.40;5.38;;;;;;;;;;5030913;28;20510;-71
2023/09/04 04:24:15;;;;;;;14.80;5.20;;;;;;;;;;5029126;28;20458;-68
2023/09/04 04:26:42;;;;;;;11.45;5.03;;;;;;;;;;5026947;28;20384;-71
2023/09/04 04:29:08;;;;;;;12.07;5.10;;;;;;;;;;5030951;28;20033;-70
2023/09/04 04:31:33;;;;;;;9.38;4.78;;;;;;;;;;5030892;28;20033;-69
2023/09/04 04:33:58;;;;;;;17.27;6.05;;;;;;;;;;5030117;28;20037;-72
2023/09/04 04:36:24;;;;;;;15.25;6.38;;;;;;;;;;5030607;28;20545;-72
2023/09/04 04:38:49;;;;;;;11.30;5.20;;;;;;;;;;5031009;28;20551;-71
2023/09/04 04:41:14;;;;;;;13.75;5.18;;;;;;;;;;5030006;28;20025;-71
2023/09/04 04:43:40;;;;;;;14.82;5.28;;;;;;;;;;5030677;28;20164;-72
2023/09/04 04:46:05;;;;;;;9.88;4.72;;;;;;;;;;5029922;28;20136;-69
2023/09/04 04:48:30;;;;;;;13.70;5.45;;;;;;;;;;5030261;28;20022;-72
2023/09/04 04:50:56;;;;;;;9.27;5.00;;;;;;;;;;5030342;28;20149;-71
2023/09/04 04:53:21;;;;;;;9.70;4.93;;;;;;;;;;5015759;28;20483;-73
2023/09/04 04:55:46;;;;;;;11.57;5.22;;;;;;;;;;5029541;28;20109;-70
2023/09/04 04:58:12;;;;;;;11.63;5.07;;;;;;;;;;5029037;28;20173;-70
2023/09/04 05:00:37;;;;;;;10.48;5.13;;;;;;;;;;5030300;28;20048;-71
2023/09/04 05:03:03;;;;;;;10.50;5.25;;;;;;;;;;5030654;28;20075;-72
2023/09/04 05:05:28;;;;;;;10.68;5.30;;;;;;;;;;5030325;28;20071;-69
2023/09/04 05:07:53;;;;;;;14.32;5.97;;;;;;;;;;5029870;28;20499;-73
2023/09/04 05:10:18;;;;;;;12.43;5.28;;;;;;;;;;5029587;28;20017;-71
2023/09/04 05:12:44;;;;;;;16.80;6.47;;;;;;;;;;5013228;28;20029;-71
2023/09/04 05:15:09;;;;;;;13.52;5.43;;;;;;;;;;5029308;28;20033;-70
2023/09/04 05:17:34;;;;;;;10.00;5.47;;;;;;;;;;5030759;28;20057;-70
2023/09/04 05:20:02;;;;;;;20.08;6.55;;;;;;;;;;5030227;28;20283;-72
2023/09/04 05:22:27;;;;;;;9.20;5.38;;;;;;;;;;5030873;28;20033;-72
2023/09/04 05:24:52;;;;;;;11.85;5.22;;;;;;;;;;5028456;28;20032;-72
2023/09/04 05:27:18;;;;;;;11.57;5.57;;;;;;;;;;5028540;28;20021;-73
2023/09/04 05:29:43;;;;;;;12.07;5.32;;;;;;;;;;5029074;28;20025;-70
2023/09/04 05:32:08;;;;;;;13.23;5.60;;;;;;;;;;5028549;28;20013;-69
2023/09/04 05:34:39;;;;;;;17.98;6.63;;;;;;;;;;5028626;28;20037;-71
2023/09/04 05:37:04;;;;;;;11.50;5.30;;;;;;;;;;5028547;28;20021;-71
2023/09/04 05:39:29;;;;;;;11.32;5.43;;;;;;;;;;5029858;28;20406;-72
2023/09/04 05:41:55;;;;;;;8.90;5.00;;;;;;;;;;5029443;28;20501;-72
2023/09/04 05:44:20;;;;;;;9.48;5.40;;;;;;;;;;5029397;28;20025;-69
2023/09/04 05:46:45;;;;;;;12.15;5.90;;;;;;;;;;5029332;28;20021;-71
2023/09/04 05:49:11;;;;;;;17.65;6.10;;;;;;;;;;5028986;28;20538;-69
2023/09/04 05:51:36;;;;;;;11.50;5.28;;;;;;;;;;5028889;28;20021;-71
2023/09/04 05:54:01;;;;;;;17.40;6.00;;;;;;;;;;5030523;28;20013;-71
2023/09/04 05:56:27;;;;;;;16.17;6.38;;;;;;;;;;5025087;28;20022;-72
2023/09/04 05:58:52;;;;;;;15.07;5.97;;;;;;;;;;5029957;28;20033;-71
2023/09/04 06:01:18;;;;;;;21.25;6.10;;;;;;;;;;5029994;28;20048;-70
2023/09/04 06:03:43;;;;;;;12.95;5.53;;;;;;;;;;5028560;28;20036;-70
2023/09/04 06:06:09;;;;;;;13.90;5.10;;;;;;;;;;5029320;28;20552;-71
2023/09/04 06:08:34;;;;;;;17.05;4.72;;;;;;;;;;5029241;28;20040;-72
2023/09/04 06:11:00;;;;;;;15.52;5.57;;;;;;;;;;5025967;28;20091;-70
2023/09/04 06:13:25;;;;;;;17.55;5.72;;;;;;;;;;5019327;28;20417;-71
2023/09/04 06:15:51;;;;;;;13.88;4.93;;;;;;;;;;5029186;28;20423;-71
2023/09/04 06:18:16;;;;;;;19.20;5.13;;;;;;;;;;5023438;28;20171;-71
2023/09/04 06:20:41;;;;;;;16.30;6.35;;;;;;;;;;5021217;28;20021;-71
2023/09/04 06:23:06;;;;;;;12.68;5.32;;;;;;;;;;5028608;28;20392;-73
2023/09/04 06:25:32;;;;;;;11.18;5.15;;;;;;;;;;5028239;28;20386;-72
2023/09/04 06:27:58;;;;;;;14.48;5.70;;;;;;;;;;5028947;28;20447;-72
2023/09/04 06:30:23;;;;;;;16.90;6.10;;;;;;;;;;5028870;28;20025;-72
2023/09/04 06:32:48;;;;;;;10.10;5.35;;;;;;;;;;5048773;23;20040;-63
2023/09/04 06:35:13;;;;;;;19.15;5.82;;;;;;;;;;5037053;28;20021;-67
2023/09/04 06:37:40;;;;;;;18.63;5.95;;;;;;;;;;5029874;28;20021;-66
2023/09/04 06:40:06;;;;;;;8.90;4.82;;;;;;;;;;5028657;28;20048;-67
2023/09/04 06:42:31;;;;;;;16.30;6.55;;;;;;;;;;5031464;28;20389;-65
2023/09/04 06:44:56;;;;;;;12.32;4.93;;;;;;;;;;5043986;28;20087;-68
2023/09/04 06:47:21;;;;;;;11.93;4.90;;;;;;;;;;5049505;28;20032;-66
2023/09/04 06:49:47;;;;;;;16.02;5.43;;;;;;;;;;5029961;28;20198;-66
2023/09/04 06:52:12;;;;;;;11.73;5.50;;;;;;;;;;5043455;28;20385;-66
2023/09/04 06:54:37;;;;;;;13.77;5.78;;;;;;;;;;5029633;28;20052;-65
2023/09/04 06:57:03;;;;;;;15.77;5.70;;;;;;;;;;5029297;28;20013;-67
2023/09/04 06:59:28;;;;;;;10.30;5.68;;;;;;;;;;5049725;28;20500;-65
2023/09/04 07:01:53;;;;;;;10.82;4.32;;;;;;;;;;5036484;28;20028;-67
2023/09/04 07:04:18;;;;;;;13.90;5.93;;;;;;;;;;5043201;28;20072;-67
2023/09/04 07:06:43;;;;;;;17.38;5.68;;;;;;;;;;5029471;28;20072;-67
2023/09/04 07:09:09;;;;;;;9.65;5.22;;;;;;;;;;5029859;28;20025;-64
2023/09/04 07:11:34;;;;;;;16.02;5.72;;;;;;;;;;5031838;28;20029;-67
2023/09/04 07:13:59;;;;;;;11.70;4.55;;;;;;;;;;5023604;28;20041;-66
2023/09/04 07:16:25;;;;;;;13.73;5.00;;;;;;;;;;5026625;28;20025;-66
2023/09/04 07:18:50;;;;;;;7.72;3.92;;;;;;;;;;5029263;28;20445;-66
2023/09/04 07:21:16;;;;;;;11.02;4.30;;;;;;;;;;5042202;28;20016;-67
2023/09/04 07:23:41;;;;;;;15.52;4.50;;;;;;;;;;5029789;28;20032;-65
2023/09/04 07:26:07;;;;;;;17.60;9.80;;;;;;;;;;5043328;28;20125;-64
2023/09/04 07:28:32;;;;;;;13.10;4.65;;;;;;;;;;5035350;28;20041;-67
2023/09/04 07:31:17;;;;;;;11.68;3.85;;;;;;;;;;5034732;28;20018;-68
2023/09/04 07:33:43;;;;;;;9.90;4.07;;;;;;;;;;5033670;28;20037;-68
2023/09/04 07:36:08;;;;;;;7.93;3.50;;;;;;;;;;5033614;28;20030;-66
2023/09/04 07:38:34;;;;;;;13.27;3.95;;;;;;;;;;5040537;28;20020;-65
2023/09/04 07:41:00;;;;;;;8.60;3.58;;;;;;;;;;5053536;28;20078;-65
2023/09/04 07:43:25;;;;;;;8.20;3.72;;;;;;;;;;5052989;28;20104;-66
2023/09/04 07:45:52;;;;;;;13.05;4.95;;;;;;;;;;5039026;28;20097;-65
2023/09/04 07:48:18;;;;;;;11.07;3.65;;;;;;;;;;5034215;28;20022;-67
2023/09/04 07:50:43;;;;;;;13.38;3.50;;;;;;;;;;5026464;28;20446;-66
2023/09/04 07:53:08;;;;;;;7.45;3.38;;;;;;;;;;5033456;28;20075;-65
2023/09/04 07:55:33;;;;;;;7.97;3.28;;;;;;;;;;5035617;28;20413;-65
2023/09/04 07:57:59;;;;;;;5.75;3.10;;;;;;;;;;5052767;28;20017;-67
2023/09/04 08:00:24;;;;;;;10.98;3.72;;;;;;;;;;5035907;28;20024;-67
2023/09/04 08:02:50;;;;;;;7.63;3.10;;;;;;;;;;5043100;28;20064;-66
2023/09/04 08:05:15;;;;;;;10.10;2.72;;;;;;;;;;5037529;28;20025;-67
2023/09/04 08:07:40;;;;;;;7.40;3.35;;;;;;;;;;5052166;28;20413;-65
2023/09/04 08:10:06;;;;;;;10.23;3.30;;;;;;;;;;5052612;28;20064;-67
2023/09/04 08:12:31;;;;;;;5.28;2.80;;;;;;;;;;5026687;28;20025;-67
2023/09/04 08:14:56;;;;;;;4.93;2.40;;;;;;;;;;5033227;28;20029;-66
2023/09/04 08:17:21;;;;;;;5.65;2.75;;;;;;;;;;5042961;28;20036;-67
2023/09/04 08:19:47;;;;;;;7.60;2.70;;;;;;;;;;5044935;28;20063;-65
2023/09/04 08:22:12;;;;;;;6.50;2.55;;;;;;;;;;5042188;28;20496;-65
2023/09/04 08:24:37;;;;;;;7.43;2.97;;;;;;;;;;5036310;28;20113;-65
2023/09/04 08:27:03;;;;;;;5.63;2.58;;;;;;;;;;5051791;28;20481;-67
2023/09/04 08:29:28;;;;;;;8.40;3.17;;;;;;;;;;5036147;28;20517;-67
2023/09/04 08:31:53;;;;;;;7.63;2.90;;;;;;;;;;5032269;28;20071;-66
2023/09/04 08:34:18;;;;;;;6.97;2.40;;;;;;;;;;5031846;28;20025;-65
2023/09/04 08:36:43;;;;;;;5.90;2.70;;;;;;;;;;5031201;28;20201;-67
2023/09/04 08:39:09;;;;;;;6.97;2.22;;;;;;;;;;5032374;28;20021;-64
2023/09/04 08:41:34;;;;;;;6.18;2.78;;;;;;;;;;5041384;28;20021;-66
2023/09/04 08:43:59;;;;;;;8.55;2.75;;;;;;;;;;5038571;28;20470;-65
2023/09/04 08:46:26;;;;;;;6.20;2.20;;;;;;;;;;5040076;28;20092;-68
2023/09/04 08:48:52;;;;;;;6.07;2.20;;;;;;;;;;5039256;28;20014;-66
2023/09/04 08:51:18;;;;;;;9.38;3.65;;;;;;;;;;5030859;28;20025;-67
2023/09/04 08:53:43;;;;;;;18.10;7.53;;;;;;;;;;5035361;28;20021;-67
2023/09/04 08:56:08;;;;;;;6.40;2.00;;;;;;;;;;5043474;28;20021;-64
2023/09/04 08:58:34;;;;;;;6.88;2.42;;;;;;;;;;5034940;28;20052;-66
2023/09/04 09:00:59;;;;;;;6.05;2.05;;;;;;;;;;5043766;28;20021;-65
2023/09/04 09:03:24;;;;;;;6.50;2.60;;;;;;;;;;5031702;28;20081;-67
2023/09/04 09:05:50;;;;;;;5.95;2.38;;;;;;;;;;5031506;28;20088;-67
2023/09/04 09:08:16;;;;;;;5.10;2.00;;;;;;;;;;5029956;28;20401;-64
2023/09/04 09:10:46;;;;;;;11.20;2.75;;;;;;;;;;5036363;28;20049;-67
2023/09/04 09:13:13;;;;;;;7.13;2.28;;;;;;;;;;5018912;28;20454;-68
2023/09/04 09:15:38;;;;;;;4.60;2.30;;;;;;;;;;5034612;28;20129;-65
2023/09/04 09:18:04;;;;;;;4.57;2.10;;;;;;;;;;5031150;28;20049;-66
2023/09/04 09:20:31;;;;;;;7.45;2.13;;;;;;;;;;5040245;28;20096;-64
2023/09/04 09:22:57;;;;;;;6.70;2.90;;;;;;;;;;5051507;28;20028;-64
2023/09/04 09:25:22;;;;;;;5.18;2.35;;;;;;;;;;5048547;28;20032;-66
2023/09/04 09:27:48;;;;;;;6.35;2.70;;;;;;;;;;5034977;28;20026;-67
2023/09/04 09:30:14;;;;;;;10.02;3.33;;;;;;;;;;5031313;28;20565;-67
2023/09/04 09:32:41;;;;;;;5.43;2.28;;;;;;;;;;5044653;28;20530;-68
2023/09/04 09:35:06;;;;;;;13.07;2.80;;;;;;;;;;5031150;28;20364;-65
2023/09/04 09:37:33;;;;;;;7.95;2.78;;;;;;;;;;5031081;28;20080;-67
2023/09/04 09:39:58;;;;;;;5.05;2.00;;;;;;;;;;5030836;28;20118;-65
2023/09/04 09:42:26;;;;;;;9.18;2.00;;;;;;;;;;5028697;28;20029;-68
2023/09/04 09:44:52;;;;;;;5.47;1.90;;;;;;;;;;5030855;28;20202;-68
2023/09/04 09:47:17;;;;;;;4.45;1.85;;;;;;;;;;5030388;28;20129;-66
2023/09/04 09:49:43;;;;;;;5.03;2.17;;;;;;;;;;5017149;28;20029;-67
2023/09/04 09:52:09;;;;;;;5.45;2.17;;;;;;;;;;5030774;28;20021;-64
2023/09/04 09:54:35;;;;;;;4.45;1.67;;;;;;;;;;5030491;28;20440;-65
2023/09/04 09:57:01;;;;;;;9.98;2.28;;;;;;;;;;5032527;28;20112;-68
2023/09/04 09:59:30;;;;;;;7.30;2.13;;;;;;;;;;5041177;28;20075;-67
2023/09/04 10:01:56;;;;;;;2.95;1.80;;;;;;;;;;5030595;28;20429;-67
2023/09/04 10:04:22;;;;;;;5.10;1.70;;;;;;;;;;5030196;28;20017;-66
2023/09/04 10:06:48;;;;;;;6.40;1.83;;;;;;;;;;5029820;28;20075;-66
2023/09/04 10:09:15;;;;;;;7.03;2.10;;;;;;;;;;5040246;28;20013;-67
2023/09/04 10:11:42;;;;;;;5.13;1.77;;;;;;;;;;5029340;28;20074;-67
2023/09/04 10:14:14;;;;;;;8.57;2.05;;;;;;;;;;5025996;28;20043;-67
2023/09/04 10:16:43;;;;;;;4.80;2.10;;;;;;;;;;5034362;28;20039;-65
2023/09/04 10:19:10;;;;;;;6.38;1.88;;;;;;;;;;5038209;28;20096;-65
2023/09/04 10:21:37;;;;;;;7.55;1.50;;;;;;;;;;5030051;28;20121;-68
2023/09/04 10:24:07;;;;;;;3.67;1.58;;;;;;;;;;5040859;28;20381;-68
2023/09/04 10:26:38;;;;;;;5.18;1.95;;;;;;;;;;5028747;28;20021;-68
2023/09/04 10:29:08;;;;;;;7.85;2.30;;;;;;;;;;5030619;28;20063;-69
2023/09/04 10:31:34;;;;;;;5.57;1.70;;;;;;;;;;5028659;28;20040;-65
2023/09/04 10:34:00;;;;;;;5.40;2.00;;;;;;;;;;5030120;28;20098;-64
2023/09/04 10:36:27;;;;;;;4.88;2.00;;;;;;;;;;5029097;28;20501;-67
2023/09/04 10:38:53;;;;;;;5.38;2.05;;;;;;;;;;5029858;28;20022;-65
2023/09/04 10:41:18;;;;;;;6.20;1.65;;;;;;;;;;5036417;28;20031;-66
2023/09/04 10:43:44;;;;;;;7.57;1.90;;;;;;;;;;5049535;28;20021;-66
2023/09/04 10:46:12;;;;;;;3.45;1.70;;;;;;;;;;5030852;28;20409;-67
2023/09/04 10:48:37;;;;;;;;;;;;;;;;;;5036697;28;20241;-67
2023/09/04 10:51:23;;;;;;;8.18;2.25;;;;;;;;;;5024563;28;19916;-66
2023/09/04 10:53:48;;;;;;;4.25;1.70;;;;;;;;;;5030079;28;20057;-67
2023/09/04 10:56:13;;;;;;;5.65;1.95;;;;;;;;;;5029835;28;20045;-68
2023/09/04 10:58:57;;;;;;;4.10;1.85;;;;;;;;;;5038301;28;20098;-67
2023/09/04 11:01:36;;;;;;;5.10;2.03;;;;;;;;;;5028763;28;20033;-67
2023/09/04 11:04:05;;;;;;;7.28;2.33;;;;;;;;;;5036440;28;20021;-65
2023/09/04 11:06:37;;;;;;;8.40;2.65;;;;;;;;;;5048079;28;20024;-67
2023/09/04 11:09:03;;;;;;;4.03;2.00;;;;;;;;;;5042328;28;20092;-67
2023/09/04 11:11:29;;;;;;;7.72;2.10;;;;;;;;;;5030003;28;20039;-65
2023/09/04 11:13:55;;;;;;;4.88;1.85;;;;;;;;;;5017957;28;20113;-69
2023/09/04 11:16:20;;;;;;;11.40;2.70;;;;;;;;;;5043039;28;20083;-65
2023/09/04 11:18:46;;;;;;;6.25;2.13;;;;;;;;;;5030098;28;20038;-68
2023/09/04 11:21:12;;;;;;;15.45;2.50;;;;;;;;;;5043916;28;20021;-67
2023/09/04 11:23:38;;;;;;;4.65;1.95;;;;;;;;;;5049711;28;20545;-65
2023/09/04 11:26:03;;;;;;;8.00;2.10;;;;;;;;;;5033602;28;20018;-65
2023/09/04 11:28:28;;;;;;;5.35;1.80;;;;;;;;;;5037264;28;20021;-68
2023/09/04 11:30:57;;;;;;;7.10;1.83;;;;;;;;;;5045072;28;20044;-68
2023/09/04 11:33:23;;;;;;;4.65;1.70;;;;;;;;;;5037293;28;20036;-64
2023/09/04 11:35:57;;;;;;;4.72;2.00;;;;;;;;;;5047044;28;20033;-67
2023/09/04 11:38:26;;;;;;;6.18;1.67;;;;;;;;;;5024597;28;20458;-66
2023/09/04 11:40:52;;;;;;;9.40;1.80;;;;;;;;;;5037342;28;20024;-67
2023/09/04 11:43:17;;;;;;;6.22;1.60;;;;;;;;;;5019718;28;20018;-66
2023/09/04 11:45:43;;;;;;;6.60;1.70;;;;;;;;;;5043779;28;20074;-67
2023/09/04 11:48:08;;;;;;;7.60;1.63;;;;;;;;;;5029460;28;20024;-68
2023/09/04 11:50:33;;;;;;;5.03;1.20;;;;;;;;;;5029427;28;20037;-68
2023/09/04 11:52:59;;;;;;;10.32;1.92;;;;;;;;;;5034158;28;20087;-68
2023/09/04 11:55:24;;;;;;;5.45;1.70;;;;;;;;;;5036557;28;20057;-68
2023/09/04 11:57:50;;;;;;;4.60;1.60;;;;;;;;;;5028923;28;20054;-66
2023/09/04 12:00:15;;;;;;;4.15;1.48;;;;;;;;;;5032669;28;20025;-69
2023/09/04 12:02:42;;;;;;;4.10;1.73;;;;;;;;;;5030445;28;20033;-66
2023/09/04 12:05:07;;;;;;;5.53;1.40;;;;;;;;;;5044257;28;20025;-67
2023/09/04 12:07:33;;;;;;;6.70;1.77;;;;;;;;;;5030153;28;20109;-69
2023/09/04 12:09:59;;;;;;;3.67;1.60;;;;;;;;;;5029552;28;20475;-73
2023/09/04 12:12:24;;;;;;;6.93;1.98;;;;;;;;;;5026380;28;20025;-68
2023/09/04 12:14:50;;;;;;;4.47;1.40;;;;;;;;;;5026899;28;20034;-67
2023/09/04 12:17:15;;;;;;;3.35;1.42;;;;;;;;;;5045676;28;20322;-69
2023/09/04 12:19:42;;;;;;;3.88;1.70;;;;;;;;;;5033730;28;20021;-66
2023/09/04 12:22:13;;;;;;;11.90;2.10;;;;;;;;;;5038495;28;20024;-69
2023/09/04 12:24:39;;;;;;;4.18;1.50;;;;;;;;;;5050012;28;20466;-68
2023/09/04 12:27:05;;;;;;;5.38;1.67;;;;;;;;;;5032616;28;20078;-71
2023/09/04 12:29:30;;;;;;;3.55;1.35;;;;;;;;;;5033082;28;20053;-70
2023/09/04 12:31:57;;;;;;;8.45;1.60;;;;;;;;;;5047209;28;20017;-69
2023/09/04 12:34:25;;;;;;;4.65;1.48;;;;;;;;;;5061361;23;20081;-71
2023/09/04 12:36:55;;;;;;;6.97;1.80;;;;;;;;;;5028017;28;20584;-70
2023/09/04 12:39:20;;;;;;;3.75;1.20;;;;;;;;;;5031029;28;20041;-68
2023/09/04 12:41:52;;;;;;;5.45;1.40;;;;;;;;;;5031083;28;20098;-72
2023/09/04 12:44:17;;;;;;;3.65;1.60;;;;;;;;;;5030738;28;20036;-72
2023/09/04 12:46:42;;;;;;;4.03;1.30;;;;;;;;;;5030857;28;20021;-70
2023/09/04 12:49:08;;;;;;;3.05;1.35;;;;;;;;;;5028278;28;20055;-73
2023/09/04 12:51:33;;;;;;;3.60;1.65;;;;;;;;;;5030921;28;20101;-71
2023/09/04 12:53:58;;;;;;;7.88;1.40;;;;;;;;;;5031386;28;20490;-72
2023/09/04 12:56:23;;;;;;;2.83;1.55;;;;;;;;;;5031113;28;20048;-72
2023/09/04 12:58:48;;;;;;;5.10;1.42;;;;;;;;;;5025646;28;20112;-72
2023/09/04 13:01:14;;;;;;;4.28;1.63;;;;;;;;;;5023771;28;20028;-72
2023/09/04 13:03:39;;;;;;;11.82;2.33;;;;;;;;;;5030918;28;20122;-72
2023/09/04 13:06:04;;;;;;;3.88;1.70;;;;;;;;;;5030107;28;20029;-72
2023/09/04 13:08:30;;;;;;;4.95;2.00;;;;;;;;;;5030804;28;20543;-72
2023/09/04 13:10:55;;;;;;;4.72;1.63;;;;;;;;;;5027284;28;20502;-73
2023/09/04 13:13:20;;;;;;;3.80;1.35;;;;;;;;;;5015957;28;20049;-69
2023/09/04 13:15:45;;;;;;;9.15;2.67;;;;;;;;;;5029964;28;20207;-71
2023/09/04 13:18:10;;;;;;;3.55;1.40;;;;;;;;;;5030459;28;20437;-71
2023/09/04 13:20:36;;;;;;;3.38;1.52;;;;;;;;;;5030012;28;20022;-72
2023/09/04 13:23:02;;;;;;;5.30;1.60;;;;;;;;;;5029640;28;20069;-71
2023/09/04 13:25:27;;;;;;;6.50;1.67;;;;;;;;;;5030566;28;20029;-71
2023/09/04 13:27:53;;;;;;;3.80;1.50;;;;;;;;;;5030497;28;20014;-72
2023/09/04 13:30:18;;;;;;;5.05;1.52;;;;;;;;;;5031228;28;20026;-72
2023/09/04 13:32:44;;;;;;;3.72;1.20;;;;;;;;;;5030501;28;20079;-73
2023/09/04 13:35:09;;;;;;;8.43;1.57;;;;;;;;;;5025973;28;20101;-70
2023/09/04 13:37:35;;;;;;;7.80;1.90;;;;;;;;;;5029805;28;20269;-71
2023/09/04 13:40:00;;;;;;;6.32;1.50;;;;;;;;;;5030214;28;20062;-68
2023/09/04 13:42:25;;;;;;;5.68;1.40;;;;;;;;;;5028761;28;20611;-70
2023/09/04 13:44:50;;;;;;;12.25;1.77;;;;;;;;;;5024028;28;20030;-72
2023/09/04 13:47:22;;;;;;;6.43;1.47;;;;;;;;;;5021666;28;20434;-72
2023/09/04 13:49:48;;;;;;;6.07;1.58;;;;;;;;;;5028722;28;20317;-70
2023/09/04 13:52:14;;;;;;;4.15;1.58;;;;;;;;;;5028758;28;20486;-70
2023/09/04 13:54:39;;;;;;;2.58;1.20;;;;;;;;;;5028718;28;20116;-68
2023/09/04 13:57:04;;;;;;;3.70;1.40;;;;;;;;;;5028781;28;20370;-72
2023/09/04 13:59:30;;;;;;;5.60;1.47;;;;;;;;;;5028056;28;20032;-71
2023/09/04 14:01:55;;;;;;;4.10;1.38;;;;;;;;;;5028830;28;20274;-74
2023/09/04 14:04:20;;;;;;;3.65;1.15;;;;;;;;;;5029218;28;20021;-69
2023/09/04 14:06:45;;;;;;;4.03;1.43;;;;;;;;;;5027144;28;20010;-74
2023/09/04 14:09:11;;;;;;;4.70;1.30;;;;;;;;;;5026458;28;20277;-72
2023/09/04 14:11:36;;;;;;;3.15;1.50;;;;;;;;;;5021103;28;20479;-72
2023/09/04 14:14:02;;;;;;;4.50;2.20;;;;;;;;;;5018961;28;20471;-71
2023/09/04 14:16:27;;;;;;;5.72;1.40;;;;;;;;;;5012636;28;20239;-73
2023/09/04 14:18:52;;;;;;;2.92;1.40;;;;;;;;;;5027981;28;20441;-71
2023/09/04 14:21:18;;;;;;;4.63;1.73;;;;;;;;;;5029244;28;20279;-70
2023/09/04 14:23:45;;;;;;;9.02;1.80;;;;;;;;;;5029680;28;20036;-73
2023/09/04 14:26:10;;;;;;;10.30;1.52;;;;;;;;;;5028591;28;20021;-73
2023/09/04 14:28:36;;;;;;;6.03;1.30;;;;;;;;;;5028593;28;20428;-72
2023/09/04 14:31:01;;;;;;;6.32;1.42;;;;;;;;;;5032957;28;20319;-73
2023/09/04 14:33:26;;;;;;;3.75;1.15;;;;;;;;;;5027999;28;20032;-71
2023/09/04 14:35:58;;;;;;;7.20;1.40;;;;;;;;;;5029242;28;20025;-74
2023/09/04 14:38:23;;;;;;;2.85;1.02;;;;;;;;;;5028435;28;20099;-71